createdAt,value
2017-09-27T00:01:43.934Z,54.13
2017-09-27T00:04:11.446Z,54.43
2017-09-27T00:06:38.986Z,55.30
2017-09-27T00:09:06.501Z,53.47
2017-09-27T00:11:34.077Z,57.67
2017-09-27T00:14:03.440Z,55.73
2017-09-27T00:16:31.762Z,58.63
2017-09-27T00:19:00.069Z,56.43
2017-09-27T00:21:27.586Z,56.40
2017-09-27T00:23:55.121Z,52.70
2017-09-27T00:26:23.409Z,53.57
2017-09-27T00:28:51.713Z,56.50
2017-09-27T00:31:19.232Z,56.00
2017-09-27T00:33:47.529Z,52.73
2017-09-27T00:36:15.045Z,55.87
2017-09-27T00:38:42.591Z,58.13
2017-09-27T00:41:11.457Z,61.07
2017-09-27T00:43:40.408Z,59.70
2017-09-27T00:46:09.272Z,59.87
2017-09-27T00:48:38.184Z,56.87
2017-09-27T00:51:07.048Z,57.57
2017-09-27T00:53:35.904Z,60.00
2017-09-27T00:56:04.783Z,54.33
2017-09-27T00:58:33.656Z,57.60
2017-09-27T01:01:02.539Z,57.90
2017-09-27T01:03:31.404Z,62.33
2017-09-27T01:06:00.280Z,58.03
2017-09-27T01:08:29.145Z,53.70
2017-09-27T01:10:58.025Z,54.70
2017-09-27T01:13:26.893Z,54.27
2017-09-27T01:15:55.772Z,62.30
2017-09-27T01:18:24.632Z,56.53
2017-09-27T01:20:53.541Z,61.40
2017-09-27T01:23:22.408Z,52.90
2017-09-27T01:25:51.283Z,62.43
2017-09-27T01:28:20.160Z,62.00
2017-09-27T01:30:49.033Z,56.60
2017-09-27T01:33:17.910Z,62.00
2017-09-27T01:35:46.771Z,68.47
2017-09-27T01:38:15.648Z,68.43
2017-09-27T01:40:44.516Z,66.27
2017-09-27T01:43:13.388Z,65.50
2017-09-27T01:45:42.260Z,70.17
2017-09-27T01:48:11.152Z,61.37
2017-09-27T01:50:40.044Z,68.30
2017-09-27T01:53:08.919Z,66.20
2017-09-27T01:55:37.797Z,59.37
2017-09-27T01:58:06.660Z,63.50
2017-09-27T02:00:35.540Z,70.90
2017-09-27T02:03:04.400Z,68.00
2017-09-27T02:05:33.274Z,64.10
2017-09-27T02:08:00.797Z,70.53
2017-09-27T02:10:28.328Z,65.50
2017-09-27T02:12:55.844Z,62.23
2017-09-27T02:15:23.382Z,65.10
2017-09-27T02:17:50.906Z,62.37
2017-09-27T02:20:19.601Z,67.30
2017-09-27T02:22:48.279Z,59.90
2017-09-27T02:25:15.805Z,67.47
2017-09-27T02:27:44.477Z,71.60
2017-09-27T02:30:11.994Z,62.63
2017-09-27T02:32:40.293Z,64.07
2017-09-27T02:35:07.821Z,63.53
2017-09-27T02:37:35.766Z,69.70
2017-09-27T02:40:03.677Z,60.83
2017-09-27T02:42:31.972Z,64.93
2017-09-27T02:44:59.498Z,71.77
2017-09-27T02:47:27.035Z,60.43
2017-09-27T02:49:54.545Z,66.03
2017-09-27T02:52:22.092Z,63.37
2017-09-27T02:54:50.380Z,63.53
2017-09-27T02:57:18.660Z,66.07
2017-09-27T02:59:46.193Z,62.90
2017-09-27T03:02:14.845Z,60.70
2017-09-27T03:04:43.524Z,63.73
2017-09-27T03:07:11.044Z,62.23
2017-09-27T03:09:39.341Z,64.43
2017-09-27T03:12:06.856Z,60.40
2017-09-27T03:14:35.521Z,60.97
2017-09-27T03:17:03.046Z,61.20
2017-09-27T03:19:30.580Z,69.63
2017-09-27T03:21:58.864Z,66.57
2017-09-27T03:24:27.189Z,66.23
2017-09-27T03:26:54.705Z,69.73
2017-09-27T03:29:22.990Z,62.17
2017-09-27T03:31:50.517Z,59.20
2017-09-27T03:34:18.040Z,58.13
2017-09-27T03:36:45.573Z,63.50
2017-09-27T03:39:13.085Z,63.87
2017-09-27T03:41:40.616Z,66.83
2017-09-27T03:44:08.135Z,57.70
2017-09-27T03:46:37.017Z,60.00
2017-09-27T03:49:05.877Z,66.70
2017-09-27T03:51:34.751Z,60.73
2017-09-27T03:54:03.631Z,62.87
2017-09-27T03:56:32.528Z,63.90
2017-09-27T03:59:01.392Z,59.20
2017-09-27T04:01:30.257Z,62.47
2017-09-27T04:03:59.136Z,58.80
2017-09-27T04:06:27.995Z,57.67
2017-09-27T04:08:56.870Z,60.50
2017-09-27T04:11:25.724Z,59.63
2017-09-27T04:13:54.616Z,62.87
2017-09-27T04:16:23.474Z,58.93
2017-09-27T04:18:52.359Z,55.53
2017-09-27T04:21:21.225Z,62.10
2017-09-27T04:23:50.128Z,62.53
2017-09-27T04:26:18.988Z,61.17
2017-09-27T04:28:47.843Z,60.80
2017-09-27T04:31:16.739Z,62.50
2017-09-27T04:33:45.600Z,64.70
2017-09-27T04:36:14.480Z,62.30
2017-09-27T04:38:43.344Z,64.87
2017-09-27T04:41:12.225Z,63.13
2017-09-27T04:43:41.087Z,66.47
2017-09-27T04:46:09.968Z,70.80
2017-09-27T04:48:38.830Z,62.03
2017-09-27T04:51:07.708Z,67.77
2017-09-27T04:53:36.580Z,68.77
2017-09-27T04:56:05.479Z,61.30
2017-09-27T04:58:34.347Z,69.03
2017-09-27T05:01:03.207Z,60.57
2017-09-27T05:03:32.083Z,63.43
2017-09-27T05:06:00.938Z,59.83
2017-09-27T05:08:29.820Z,61.23
2017-09-27T05:10:58.688Z,64.73
2017-09-27T05:13:27.576Z,67.90
2017-09-27T05:15:56.444Z,61.97
2017-09-27T05:18:25.337Z,62.77
2017-09-27T05:20:54.205Z,62.87
2017-09-27T05:23:23.092Z,65.40
2017-09-27T05:25:51.957Z,60.13
2017-09-27T05:28:20.819Z,66.47
2017-09-27T05:30:49.704Z,62.50
2017-09-27T05:33:18.560Z,59.67
2017-09-27T05:35:47.565Z,70.07
2017-09-27T05:38:16.428Z,60.07
2017-09-27T05:40:45.308Z,65.70
2017-09-27T05:43:14.201Z,63.23
2017-09-27T05:45:43.143Z,62.17
2017-09-27T05:48:12.017Z,66.73
2017-09-27T05:50:40.903Z,60.10
2017-09-27T05:53:09.771Z,64.73
2017-09-27T05:55:38.680Z,61.03
2017-09-27T05:58:07.560Z,55.40
2017-09-27T06:00:36.429Z,67.87
2017-09-27T06:03:05.313Z,67.87
2017-09-27T06:05:34.179Z,59.40
2017-09-27T06:08:03.059Z,67.73
2017-09-27T06:10:31.916Z,67.90
2017-09-27T06:13:00.796Z,63.57
2017-09-27T06:15:29.656Z,66.27
2017-09-27T06:17:58.535Z,67.13
2017-09-27T06:20:27.396Z,75.50
2017-09-27T06:22:56.272Z,60.70
2017-09-27T06:25:25.132Z,66.80
2017-09-27T06:27:54.032Z,68.00
2017-09-27T06:30:22.896Z,78.90
2017-09-27T06:32:51.773Z,68.70
2017-09-27T06:35:20.660Z,70.00
2017-09-27T06:37:49.552Z,71.73
2017-09-27T06:40:18.427Z,63.30
2017-09-27T06:42:47.292Z,66.23
2017-09-27T06:45:16.176Z,70.50
2017-09-27T06:47:45.073Z,62.77
2017-09-27T06:50:13.964Z,66.07
2017-09-27T06:52:42.824Z,60.43
2017-09-27T06:55:11.696Z,59.00
2017-09-27T06:57:40.678Z,61.07
2017-09-27T07:00:09.572Z,59.30
2017-09-27T07:02:38.427Z,63.47
2017-09-27T07:05:07.288Z,58.63
2017-09-27T07:07:36.167Z,55.33
2017-09-27T07:10:05.061Z,55.10
2017-09-27T07:12:33.960Z,55.47
2017-09-27T07:15:02.829Z,56.43
2017-09-27T07:17:30.364Z,56.23
2017-09-27T07:19:59.021Z,55.57
2017-09-27T07:22:26.954Z,49.73
2017-09-27T07:24:54.468Z,58.43
2017-09-27T07:27:22.411Z,66.10
2017-09-27T07:29:49.937Z,59.40
2017-09-27T07:32:17.457Z,51.60
2017-09-27T07:34:46.340Z,54.60
2017-09-27T07:37:14.648Z,60.83
2017-09-27T07:39:42.198Z,56.60
2017-09-27T07:42:11.070Z,48.33
2017-09-27T07:44:39.952Z,56.60
2017-09-27T07:47:08.821Z,55.40
2017-09-27T07:49:37.700Z,49.80
2017-09-27T07:52:06.560Z,54.50
2017-09-27T07:54:34.108Z,63.10
2017-09-27T07:57:02.759Z,54.30
2017-09-27T07:59:31.668Z,53.30
2017-09-27T08:02:00.605Z,57.23
2017-09-27T08:04:29.468Z,51.80
2017-09-27T08:06:58.357Z,54.50
2017-09-27T08:09:27.227Z,54.03
2017-09-27T08:11:56.110Z,54.30
2017-09-27T08:14:24.980Z,59.53
2017-09-27T08:16:53.855Z,57.23
2017-09-27T08:19:22.720Z,57.90
2017-09-27T08:21:51.600Z,58.30
2017-09-27T08:24:20.470Z,58.87
2017-09-27T08:26:49.376Z,55.23
2017-09-27T08:29:18.241Z,60.13
2017-09-27T08:31:47.100Z,53.80
2017-09-27T08:34:15.975Z,61.03
2017-09-27T08:36:44.840Z,52.33
2017-09-27T08:39:13.831Z,55.93
2017-09-27T08:41:42.700Z,56.93
2017-09-27T08:44:11.596Z,60.80
2017-09-27T08:46:40.460Z,60.00
2017-09-27T08:49:09.331Z,53.30
2017-09-27T08:51:38.205Z,54.37
2017-09-27T08:54:07.088Z,56.80
2017-09-27T08:56:35.952Z,58.40
2017-09-27T08:59:04.857Z,58.40
2017-09-27T09:01:33.719Z,55.93
2017-09-27T09:04:02.585Z,55.30
2017-09-27T09:06:31.467Z,60.97
2017-09-27T09:09:00.337Z,54.10
2017-09-27T09:11:29.208Z,56.97
2017-09-27T09:13:58.075Z,56.10
2017-09-27T09:16:26.956Z,54.67
2017-09-27T09:18:55.825Z,54.37
2017-09-27T09:21:24.712Z,56.90
2017-09-27T09:23:53.581Z,49.70
2017-09-27T09:26:22.480Z,47.60
2017-09-27T09:28:51.344Z,50.60
2017-09-27T09:31:20.265Z,56.57
2017-09-27T09:33:49.141Z,53.83
2017-09-27T09:36:17.999Z,52.20
2017-09-27T09:38:46.880Z,50.80
2017-09-27T09:41:15.749Z,47.20
2017-09-27T09:43:44.625Z,43.63
2017-09-27T09:46:13.480Z,49.90
2017-09-27T09:48:42.369Z,46.97
2017-09-27T09:51:11.232Z,46.13
2017-09-27T09:53:40.108Z,42.30
2017-09-27T09:56:08.976Z,39.30
2017-09-27T09:58:37.872Z,47.43
2017-09-27T10:01:06.732Z,45.43
2017-09-27T10:03:35.600Z,44.67
2017-09-27T10:06:04.489Z,47.23
2017-09-27T10:08:33.352Z,42.67
2017-09-27T10:11:02.228Z,44.23
2017-09-27T10:13:31.102Z,45.40
2017-09-27T10:15:59.980Z,43.70
2017-09-27T10:18:28.840Z,43.57
2017-09-27T10:20:57.716Z,40.77
2017-09-27T10:23:26.588Z,40.47
2017-09-27T10:25:55.468Z,42.93
2017-09-27T10:28:24.332Z,41.50
2017-09-27T10:30:53.240Z,41.83
2017-09-27T10:33:22.096Z,41.83
2017-09-27T10:35:50.956Z,40.17
2017-09-27T10:38:19.838Z,37.00
2017-09-27T10:40:48.699Z,40.23
2017-09-27T10:43:17.571Z,38.37
2017-09-27T10:45:46.428Z,36.87
2017-09-27T10:48:15.316Z,34.80
2017-09-27T10:50:44.176Z,35.93
2017-09-27T10:53:13.057Z,38.13
2017-09-27T10:55:41.920Z,34.30
2017-09-27T10:58:10.797Z,36.30
2017-09-27T11:00:39.660Z,38.80
2017-09-27T11:03:08.545Z,36.90
2017-09-27T11:05:37.411Z,35.90
2017-09-27T11:08:06.312Z,36.67
2017-09-27T11:10:35.177Z,37.50
2017-09-27T11:13:04.040Z,35.63
2017-09-27T11:15:32.930Z,33.57
2017-09-27T11:18:01.792Z,32.33
2017-09-27T11:20:30.668Z,33.93
2017-09-27T11:22:59.551Z,32.60
2017-09-27T11:25:28.428Z,31.10
2017-09-27T11:27:57.291Z,32.40
2017-09-27T11:30:26.169Z,29.87
2017-09-27T11:32:55.028Z,29.63
2017-09-27T11:35:23.927Z,29.83
2017-09-27T11:37:52.785Z,29.57
2017-09-27T11:40:21.644Z,28.00
2017-09-27T11:42:50.528Z,27.93
2017-09-27T11:45:19.393Z,28.73
2017-09-27T11:47:48.268Z,29.67
2017-09-27T11:50:17.132Z,31.87
2017-09-27T11:52:46.020Z,32.40
2017-09-27T11:55:14.881Z,31.27
2017-09-27T11:57:43.760Z,31.30
2017-09-27T12:00:12.640Z,29.87
2017-09-27T12:02:41.528Z,26.80
2017-09-27T12:05:10.389Z,28.10
2017-09-27T12:07:39.300Z,24.47
2017-09-27T12:10:08.169Z,27.83
2017-09-27T12:12:37.036Z,26.00
2017-09-27T12:15:05.920Z,25.10
2017-09-27T12:17:34.789Z,25.17
2017-09-27T12:20:03.686Z,25.10
2017-09-27T12:22:32.548Z,23.67
2017-09-27T12:25:01.427Z,23.58
2017-09-27T12:27:30.305Z,24.47
2017-09-27T12:29:59.260Z,24.33
2017-09-27T12:32:28.125Z,24.97
2017-09-27T12:34:57.000Z,23.80
2017-09-27T12:37:25.873Z,24.17
2017-09-27T12:39:54.761Z,24.00
2017-09-27T12:42:23.628Z,24.40
2017-09-27T12:44:52.529Z,22.80
2017-09-27T12:47:21.390Z,25.40
2017-09-27T12:49:50.254Z,22.40
2017-09-27T12:52:19.179Z,23.33
2017-09-27T12:54:48.058Z,24.33
2017-09-27T12:57:16.940Z,22.70
2017-09-27T12:59:45.801Z,24.33
2017-09-27T13:02:14.676Z,24.77
2017-09-27T13:04:43.537Z,24.73
2017-09-27T13:07:12.413Z,23.83
2017-09-27T13:09:41.276Z,24.70
2017-09-27T13:12:10.161Z,22.73
2017-09-27T13:14:39.080Z,23.53
2017-09-27T13:17:07.956Z,21.70
2017-09-27T13:19:36.815Z,21.87
2017-09-27T13:22:05.688Z,21.80
2017-09-27T13:24:34.552Z,20.60
2017-09-27T13:27:03.436Z,20.93
2017-09-27T13:29:32.301Z,21.70
2017-09-27T13:32:01.219Z,21.40
2017-09-27T13:34:30.077Z,20.73
2017-09-27T13:36:58.941Z,20.97
2017-09-27T13:39:27.848Z,22.10
2017-09-27T13:41:56.713Z,22.73
2017-09-27T13:44:25.596Z,21.80
2017-09-27T13:46:54.453Z,22.13
2017-09-27T13:49:23.323Z,21.40
2017-09-27T13:51:52.185Z,20.93
2017-09-27T13:54:21.069Z,20.90
2017-09-27T13:56:49.932Z,21.07
2017-09-27T13:59:18.812Z,19.27
2017-09-27T14:01:47.673Z,19.87
2017-09-27T14:04:16.553Z,20.50
2017-09-27T14:06:45.416Z,20.53
2017-09-27T14:09:14.292Z,18.90
2017-09-27T14:11:43.152Z,19.87
2017-09-27T14:14:12.035Z,19.53
2017-09-27T14:16:40.896Z,17.90
2017-09-27T14:19:09.795Z,19.10
2017-09-27T14:21:38.661Z,19.83
2017-09-27T14:24:07.532Z,20.77
2017-09-27T14:26:36.460Z,19.37
2017-09-27T14:29:05.324Z,17.43
2017-09-27T14:34:09.528Z,19.30
2017-09-27T14:36:38.413Z,19.20
2017-09-27T14:39:07.280Z,19.93
2017-09-27T14:41:36.160Z,20.17
2017-09-27T14:44:05.025Z,16.90
2017-09-27T14:46:33.903Z,18.83
2017-09-27T14:49:02.768Z,19.10
2017-09-27T14:51:31.652Z,18.17
2017-09-27T14:54:00.510Z,19.23
2017-09-27T14:56:29.425Z,18.37
2017-09-27T14:58:58.287Z,18.33
2017-09-27T15:01:27.144Z,18.17
2017-09-27T15:03:56.019Z,17.67
2017-09-27T15:06:24.888Z,17.70
2017-09-27T15:08:53.763Z,16.33
2017-09-27T15:11:22.633Z,18.43
2017-09-27T15:13:51.512Z,17.67
2017-09-27T15:16:20.393Z,16.67
2017-09-27T15:18:49.272Z,17.63
2017-09-27T15:21:18.137Z,17.07
2017-09-27T15:23:47.024Z,17.80
2017-09-27T15:26:15.888Z,16.63
2017-09-27T15:28:44.775Z,17.90
2017-09-27T15:31:13.636Z,18.53
2017-09-27T15:33:42.526Z,17.97
2017-09-27T15:36:11.392Z,17.40
2017-09-27T15:38:40.304Z,17.47
2017-09-27T15:41:09.172Z,17.37
2017-09-27T15:43:38.031Z,18.10
2017-09-27T15:46:06.912Z,18.47
2017-09-27T15:48:35.772Z,15.97
2017-09-27T15:51:04.646Z,18.30
2017-09-27T15:53:33.512Z,17.17
2017-09-27T15:56:02.388Z,15.50
2017-09-27T15:58:31.252Z,16.97
2017-09-27T16:01:00.139Z,18.50
2017-09-27T16:03:28.996Z,16.77
2017-09-27T16:05:57.877Z,17.30
2017-09-27T16:08:26.742Z,16.43
2017-09-27T16:10:55.619Z,19.00
2017-09-27T16:13:24.480Z,16.97
2017-09-27T16:15:53.368Z,16.70
2017-09-27T16:18:22.228Z,18.53
2017-09-27T16:20:51.120Z,16.67
2017-09-27T16:23:19.984Z,18.07
2017-09-27T16:25:48.849Z,19.23
2017-09-27T16:28:17.733Z,18.37
2017-09-27T16:30:46.600Z,17.80
2017-09-27T16:33:15.482Z,18.00
2017-09-27T16:35:44.352Z,18.07
2017-09-27T16:38:13.232Z,19.23
2017-09-27T16:40:42.113Z,17.33
2017-09-27T16:43:11.008Z,17.47
2017-09-27T16:45:39.873Z,18.33
2017-09-27T16:48:08.756Z,17.60
2017-09-27T16:50:37.620Z,18.10
2017-09-27T16:53:06.504Z,18.20
2017-09-27T16:55:35.364Z,17.00
2017-09-27T16:58:04.245Z,16.23
2017-09-27T17:00:33.124Z,17.57
2017-09-27T17:03:02.056Z,17.87
2017-09-27T17:05:30.913Z,15.80
2017-09-27T17:07:59.821Z,15.53
2017-09-27T17:10:28.783Z,16.30
2017-09-27T17:12:57.652Z,18.53
2017-09-27T17:15:26.532Z,15.87
2017-09-27T17:17:55.428Z,16.67
2017-09-27T17:20:24.313Z,15.33
2017-09-27T17:22:53.188Z,17.30
2017-09-27T17:25:22.082Z,15.50
2017-09-27T17:27:50.949Z,16.13
2017-09-27T17:30:19.832Z,15.60
2017-09-27T17:32:48.697Z,15.00
2017-09-27T17:35:17.584Z,15.40
2017-09-27T17:37:46.444Z,16.07
2017-09-27T17:40:15.336Z,17.20
2017-09-27T17:42:44.196Z,16.63
2017-09-27T17:45:13.072Z,16.40
2017-09-27T17:47:41.950Z,15.70
2017-09-27T17:50:10.829Z,17.27
2017-09-27T17:52:39.697Z,17.93
2017-09-27T17:55:08.581Z,17.87
2017-09-27T17:57:37.441Z,17.23
2017-09-27T18:00:06.326Z,17.10
2017-09-27T18:02:35.190Z,18.47
2017-09-27T18:05:14.747Z,17.20
2017-09-27T18:07:49.369Z,16.90
2017-09-27T18:10:24.000Z,17.63
2017-09-27T18:12:56.549Z,16.27
2017-09-27T18:15:31.057Z,17.70
2017-09-27T18:18:19.576Z,16.27
2017-09-27T18:20:48.472Z,17.10
2017-09-27T18:23:17.335Z,16.97
2017-09-27T18:25:46.197Z,16.00
2017-09-27T18:28:15.132Z,16.50
2017-09-27T18:30:44.000Z,17.00
2017-09-27T18:33:12.895Z,16.67
2017-09-27T18:35:41.760Z,15.80
2017-09-27T18:38:10.648Z,14.63
2017-09-27T18:40:39.524Z,17.00
2017-09-27T18:43:08.399Z,15.27
2017-09-27T18:45:37.264Z,17.67
2017-09-27T18:48:06.144Z,16.23
2017-09-27T18:50:35.008Z,15.67
2017-09-27T18:53:03.884Z,17.07
2017-09-27T18:55:32.749Z,16.17
2017-09-27T18:58:02.441Z,16.70
2017-09-27T19:00:31.307Z,17.27
2017-09-27T19:03:00.189Z,16.73
2017-09-27T19:05:29.061Z,16.57
2017-09-27T19:07:57.944Z,16.90
2017-09-27T19:10:26.804Z,16.57
2017-09-27T19:12:55.688Z,16.57
2017-09-27T19:15:24.550Z,16.10
2017-09-27T19:17:53.553Z,17.50
2017-09-27T19:20:22.433Z,17.03
2017-09-27T19:22:51.345Z,15.33
2017-09-27T19:25:20.208Z,15.67
2017-09-27T19:27:49.080Z,17.00
2017-09-27T19:30:17.966Z,15.50
2017-09-27T19:32:46.831Z,16.73
2017-09-27T19:35:15.708Z,16.20
2017-09-27T19:37:44.564Z,17.10
2017-09-27T19:40:13.442Z,16.40
2017-09-27T19:42:42.305Z,17.93
2017-09-27T19:45:11.184Z,16.80
2017-09-27T19:47:40.054Z,16.87
2017-09-27T19:50:08.937Z,16.97
2017-09-27T19:52:37.810Z,17.17
2017-09-27T19:55:06.689Z,17.67
2017-09-27T19:57:35.553Z,17.30
2017-09-27T20:00:04.455Z,18.43
2017-09-27T20:02:33.324Z,17.33
2017-09-27T20:05:02.190Z,17.90
2017-09-27T20:07:31.083Z,17.03
2017-09-27T20:09:59.953Z,17.30
2017-09-27T20:12:28.837Z,18.07
2017-09-27T20:14:57.697Z,17.80
2017-09-27T20:17:26.572Z,17.77
2017-09-27T20:19:55.438Z,18.90
2017-09-27T20:22:24.316Z,18.50
2017-09-27T20:24:53.184Z,18.80
2017-09-27T20:27:22.070Z,16.77
2017-09-27T20:29:50.929Z,18.00
2017-09-27T20:32:19.809Z,18.80
2017-09-27T20:34:48.665Z,19.57
2017-09-27T20:37:17.554Z,18.03
2017-09-27T20:39:46.420Z,17.60
2017-09-27T20:42:15.320Z,17.60
2017-09-27T20:44:44.189Z,17.57
2017-09-27T20:47:13.047Z,18.57
2017-09-27T20:49:41.931Z,19.30
2017-09-27T20:52:10.815Z,17.90
2017-09-27T20:54:39.693Z,18.50
2017-09-27T20:57:08.554Z,18.80
2017-09-27T20:59:37.427Z,19.87
2017-09-27T21:02:06.295Z,19.90
2017-09-27T21:04:35.168Z,19.33
2017-09-27T21:07:04.034Z,18.60
2017-09-27T21:09:32.911Z,18.40
2017-09-27T21:12:01.774Z,18.27
2017-09-27T21:14:30.653Z,17.80
2017-09-27T21:16:59.517Z,19.00
2017-09-27T21:19:28.388Z,19.17
2017-09-27T21:21:57.249Z,19.90
2017-09-27T21:24:26.149Z,18.83
2017-09-27T21:26:55.023Z,18.00
2017-09-27T21:29:23.898Z,18.93
2017-09-27T21:31:52.775Z,18.80
2017-09-27T21:34:21.648Z,18.17
2017-09-27T21:36:50.519Z,19.13
2017-09-27T21:39:19.389Z,18.80
2017-09-27T21:41:48.264Z,19.03
2017-09-27T21:44:17.119Z,18.70
2017-09-27T21:46:46.004Z,18.00
2017-09-27T21:49:14.872Z,18.23
2017-09-27T21:51:43.748Z,19.63
2017-09-27T21:54:12.613Z,18.80
2017-09-27T21:56:41.497Z,18.70
2017-09-27T21:59:10.363Z,19.93
2017-09-27T22:01:39.322Z,18.47
2017-09-27T22:04:08.184Z,17.23
2017-09-27T22:06:37.088Z,18.00
2017-09-27T22:09:05.956Z,19.00
2017-09-27T22:11:34.813Z,17.60
2017-09-27T22:16:37.961Z,17.57
2017-09-27T22:19:06.820Z,18.10
2017-09-27T22:21:35.679Z,20.67
2017-09-27T22:24:04.573Z,16.83
2017-09-27T22:26:33.435Z,18.93
2017-09-27T22:29:02.311Z,18.33
2017-09-27T22:31:31.173Z,18.70
2017-09-27T22:34:00.056Z,17.87
2017-09-27T22:36:28.932Z,19.50
2017-09-27T22:38:57.837Z,17.60
2017-09-27T22:41:26.705Z,18.70
2017-09-27T22:43:55.584Z,18.20
2017-09-27T22:46:24.457Z,18.57
2017-09-27T22:48:53.340Z,19.20
2017-09-27T22:51:22.204Z,18.50
2017-09-27T22:53:51.080Z,18.30
2017-09-27T22:56:19.944Z,17.83
2017-09-27T22:58:48.819Z,20.10
2017-09-27T23:01:17.676Z,18.20
2017-09-27T23:03:46.541Z,19.63
2017-09-27T23:06:15.412Z,18.93
2017-09-27T23:08:44.268Z,17.70
2017-09-27T23:11:13.153Z,19.43
2017-09-27T23:13:42.021Z,17.87
2017-09-27T23:16:10.896Z,19.23
2017-09-27T23:18:39.762Z,18.97
2017-09-27T23:21:08.636Z,17.73
2017-09-27T23:23:37.504Z,19.70
2017-09-27T23:26:06.387Z,18.63
2017-09-27T23:28:35.248Z,19.40
2017-09-27T23:31:04.133Z,18.10
2017-09-27T23:33:33.016Z,18.40
2017-09-27T23:36:01.908Z,20.20
2017-09-27T23:38:30.764Z,19.40
2017-09-27T23:40:59.665Z,18.50
2017-09-27T23:43:28.533Z,18.10
2017-09-27T23:45:57.395Z,19.07
2017-09-27T23:48:26.276Z,18.20
2017-09-27T23:50:55.136Z,19.27
2017-09-27T23:53:24.017Z,18.07
2017-09-27T23:55:52.877Z,17.87
2017-09-27T23:58:21.756Z,18.23
